sensor_id;sensor_type;location;lat;lon;timestamp;P1;durP1;ratioP1;P2;durP2;ratioP2
13720;SDS011;6932;51.438;5.470;2023-12-29T00:00:41;5.13;;;1.80;;
13720;SDS011;6932;51.438;5.470;2023-12-29T00:03:06;4.07;;;1.50;;
13720;SDS011;6932;51.438;5.470;2023-12-29T00:05:32;7.20;;;2.03;;
13720;SDS011;6932;51.438;5.470;2023-12-29T00:07:58;4.30;;;1.57;;
13720;SDS011;6932;51.438;5.470;2023-12-29T00:10:23;5.03;;;1.50;;
13720;SDS011;6932;51.438;5.470;2023-12-29T00:12:49;6.03;;;1.70;;
13720;SDS011;6932;51.438;5.470;2023-12-29T00:15:18;6.27;;;1.67;;
13720;SDS011;6932;51.438;5.470;2023-12-29T00:17:44;5.23;;;1.40;;
13720;SDS011;6932;51.438;5.470;2023-12-29T00:20:11;5.27;;;1.67;;
13720;SDS011;6932;51.438;5.470;2023-12-29T00:22:37;5.80;;;1.60;;
13720;SDS011;6932;51.438;5.470;2023-12-29T00:25:03;7.67;;;1.80;;
13720;SDS011;6932;51.438;5.470;2023-12-29T00:27:30;6.17;;;1.97;;
13720;SDS011;6932;51.438;5.470;2023-12-29T00:29:56;5.00;;;1.40;;
13720;SDS011;6932;51.438;5.470;2023-12-29T00:32:21;4.57;;;1.57;;
13720;SDS011;6932;51.438;5.470;2023-12-29T00:34:47;5.07;;;1.57;;
13720;SDS011;6932;51.438;5.470;2023-12-29T00:37:13;4.03;;;1.57;;
13720;SDS011;6932;51.438;5.470;2023-12-29T00:39:39;5.07;;;1.63;;
13720;SDS011;6932;51.438;5.470;2023-12-29T00:42:05;6.90;;;1.50;;
13720;SDS011;6932;51.438;5.470;2023-12-29T00:44:31;6.57;;;1.60;;
13720;SDS011;6932;51.438;5.470;2023-12-29T00:46:58;4.37;;;1.60;;
13720;SDS011;6932;51.438;5.470;2023-12-29T00:49:25;4.90;;;1.60;;
13720;SDS011;6932;51.438;5.470;2023-12-29T00:51:51;6.73;;;1.77;;
13720;SDS011;6932;51.438;5.470;2023-12-29T00:54:17;7.13;;;1.90;;
13720;SDS011;6932;51.438;5.470;2023-12-29T00:56:49;6.27;;;1.50;;
13720;SDS011;6932;51.438;5.470;2023-12-29T00:59:18;6.30;;;1.77;;
13720;SDS011;6932;51.438;5.470;2023-12-29T01:01:47;3.50;;;1.43;;
13720;SDS011;6932;51.438;5.470;2023-12-29T01:04:13;5.53;;;1.80;;
13720;SDS011;6932;51.438;5.470;2023-12-29T01:06:38;6.10;;;1.80;;
13720;SDS011;6932;51.438;5.470;2023-12-29T01:09:05;6.10;;;1.73;;
13720;SDS011;6932;51.438;5.470;2023-12-29T01:11:33;9.03;;;2.30;;
13720;SDS011;6932;51.438;5.470;2023-12-29T01:13:59;5.93;;;1.73;;
13720;SDS011;6932;51.438;5.470;2023-12-29T01:16:24;7.00;;;1.60;;
13720;SDS011;6932;51.438;5.470;2023-12-29T01:18:50;5.43;;;1.77;;
13720;SDS011;6932;51.438;5.470;2023-12-29T01:21:16;5.10;;;1.73;;
13720;SDS011;6932;51.438;5.470;2023-12-29T01:23:41;6.33;;;2.40;;
13720;SDS011;6932;51.438;5.470;2023-12-29T01:26:07;5.40;;;1.73;;
13720;SDS011;6932;51.438;5.470;2023-12-29T01:28:33;6.57;;;1.73;;
13720;SDS011;6932;51.438;5.470;2023-12-29T01:30:59;5.77;;;1.77;;
13720;SDS011;6932;51.438;5.470;2023-12-29T01:33:25;7.10;;;1.80;;
13720;SDS011;6932;51.438;5.470;2023-12-29T01:35:51;6.47;;;1.50;;
13720;SDS011;6932;51.438;5.470;2023-12-29T01:38:17;6.40;;;1.80;;
13720;SDS011;6932;51.438;5.470;2023-12-29T01:40:45;6.30;;;1.90;;
13720;SDS011;6932;51.438;5.470;2023-12-29T01:43:11;5.60;;;1.57;;
13720;SDS011;6932;51.438;5.470;2023-12-29T01:45:37;8.33;;;1.90;;
13720;SDS011;6932;51.438;5.470;2023-12-29T01:48:03;5.67;;;1.80;;
13720;SDS011;6932;51.438;5.470;2023-12-29T01:50:30;6.03;;;1.83;;
13720;SDS011;6932;51.438;5.470;2023-12-29T01:52:56;7.67;;;2.13;;
13720;SDS011;6932;51.438;5.470;2023-12-29T01:55:23;6.27;;;2.00;;
13720;SDS011;6932;51.438;5.470;2023-12-29T01:57:51;7.77;;;1.80;;
13720;SDS011;6932;51.438;5.470;2023-12-29T02:00:18;5.60;;;1.60;;
13720;SDS011;6932;51.438;5.470;2023-12-29T02:02:46;6.03;;;1.60;;
13720;SDS011;6932;51.438;5.470;2023-12-29T02:05:15;9.00;;;1.87;;
13720;SDS011;6932;51.438;5.470;2023-12-29T02:07:45;7.43;;;1.70;;
13720;SDS011;6932;51.438;5.470;2023-12-29T02:10:11;7.10;;;1.77;;
13720;SDS011;6932;51.438;5.470;2023-12-29T02:12:40;6.87;;;1.90;;
13720;SDS011;6932;51.438;5.470;2023-12-29T02:15:06;7.00;;;1.80;;
13720;SDS011;6932;51.438;5.470;2023-12-29T02:18:07;8.13;;;1.80;;
13720;SDS011;6932;51.438;5.470;2023-12-29T02:20:31;7.77;;;1.70;;
13720;SDS011;6932;51.438;5.470;2023-12-29T02:22:57;7.37;;;1.70;;
13720;SDS011;6932;51.438;5.470;2023-12-29T02:25:22;7.27;;;2.00;;
13720;SDS011;6932;51.438;5.470;2023-12-29T02:27:50;6.00;;;1.63;;
13720;SDS011;6932;51.438;5.470;2023-12-29T02:30:32;6.57;;;1.70;;
13720;SDS011;6932;51.438;5.470;2023-12-29T02:33:10;6.40;;;1.50;;
13720;SDS011;6932;51.438;5.470;2023-12-29T02:35:42;5.70;;;1.40;;
13720;SDS011;6932;51.438;5.470;2023-12-29T02:38:10;3.40;;;1.37;;
13720;SDS011;6932;51.438;5.470;2023-12-29T02:40:37;3.70;;;1.50;;
13720;SDS011;6932;51.438;5.470;2023-12-29T02:43:04;6.57;;;1.60;;
13720;SDS011;6932;51.438;5.470;2023-12-29T02:45:29;3.87;;;1.40;;
13720;SDS011;6932;51.438;5.470;2023-12-29T02:47:55;4.53;;;1.47;;
13720;SDS011;6932;51.438;5.470;2023-12-29T02:50:21;5.57;;;1.70;;
13720;SDS011;6932;51.438;5.470;2023-12-29T02:52:46;5.00;;;1.53;;
13720;SDS011;6932;51.438;5.470;2023-12-29T02:55:12;4.37;;;1.67;;
13720;SDS011;6932;51.438;5.470;2023-12-29T02:57:38;4.43;;;1.40;;
13720;SDS011;6932;51.438;5.470;2023-12-29T03:00:04;7.80;;;1.67;;
13720;SDS011;6932;51.438;5.470;2023-12-29T03:02:31;9.33;;;1.70;;
13720;SDS011;6932;51.438;5.470;2023-12-29T03:04:57;4.87;;;1.47;;
13720;SDS011;6932;51.438;5.470;2023-12-29T03:07:24;7.07;;;2.00;;
13720;SDS011;6932;51.438;5.470;2023-12-29T03:09:49;7.40;;;1.83;;
13720;SDS011;6932;51.438;5.470;2023-12-29T03:12:15;5.90;;;1.63;;
13720;SDS011;6932;51.438;5.470;2023-12-29T03:14:41;4.67;;;1.90;;
13720;SDS011;6932;51.438;5.470;2023-12-29T03:17:07;5.30;;;1.40;;
13720;SDS011;6932;51.438;5.470;2023-12-29T03:19:32;8.33;;;1.60;;
13720;SDS011;6932;51.438;5.470;2023-12-29T03:21:58;6.27;;;1.50;;
13720;SDS011;6932;51.438;5.470;2023-12-29T03:24:24;5.43;;;1.67;;
13720;SDS011;6932;51.438;5.470;2023-12-29T03:26:49;6.80;;;1.77;;
13720;SDS011;6932;51.438;5.470;2023-12-29T03:29:15;7.53;;;1.73;;
13720;SDS011;6932;51.438;5.470;2023-12-29T03:31:41;5.43;;;1.60;;
13720;SDS011;6932;51.438;5.470;2023-12-29T03:34:06;5.90;;;1.53;;
13720;SDS011;6932;51.438;5.470;2023-12-29T03:36:32;5.70;;;1.50;;
13720;SDS011;6932;51.438;5.470;2023-12-29T03:38:58;6.00;;;1.67;;
13720;SDS011;6932;51.438;5.470;2023-12-29T03:41:24;5.73;;;1.70;;
13720;SDS011;6932;51.438;5.470;2023-12-29T03:43:49;4.63;;;1.60;;
13720;SDS011;6932;51.438;5.470;2023-12-29T03:46:16;4.77;;;1.50;;
13720;SDS011;6932;51.438;5.470;2023-12-29T03:48:46;4.53;;;1.60;;
13720;SDS011;6932;51.438;5.470;2023-12-29T03:51:12;5.10;;;1.50;;
13720;SDS011;6932;51.438;5.470;2023-12-29T03:53:39;6.50;;;1.70;;
13720;SDS011;6932;51.438;5.470;2023-12-29T03:56:09;3.97;;;1.40;;
13720;SDS011;6932;51.438;5.470;2023-12-29T03:58:40;4.33;;;1.40;;
13720;SDS011;6932;51.438;5.470;2023-12-29T04:01:12;4.60;;;1.50;;
13720;SDS011;6932;51.438;5.470;2023-12-29T04:03:40;7.13;;;1.90;;
13720;SDS011;6932;51.438;5.470;2023-12-29T04:06:06;5.80;;;1.53;;
13720;SDS011;6932;51.438;5.470;2023-12-29T04:08:33;6.67;;;1.30;;
13720;SDS011;6932;51.438;5.470;2023-12-29T04:10:59;5.53;;;2.00;;
13720;SDS011;6932;51.438;5.470;2023-12-29T04:13:26;7.07;;;1.80;;
13720;SDS011;6932;51.438;5.470;2023-12-29T04:15:51;5.77;;;1.60;;
13720;SDS011;6932;51.438;5.470;2023-12-29T04:18:19;6.90;;;2.23;;
13720;SDS011;6932;51.438;5.470;2023-12-29T04:20:47;6.00;;;1.90;;
13720;SDS011;6932;51.438;5.470;2023-12-29T04:23:13;7.03;;;1.67;;
13720;SDS011;6932;51.438;5.470;2023-12-29T04:25:39;4.77;;;1.80;;
13720;SDS011;6932;51.438;5.470;2023-12-29T04:28:06;7.33;;;2.33;;
13720;SDS011;6932;51.438;5.470;2023-12-29T04:30:33;7.27;;;1.97;;
13720;SDS011;6932;51.438;5.470;2023-12-29T04:32:59;5.83;;;1.70;;
13720;SDS011;6932;51.438;5.470;2023-12-29T04:35:26;6.07;;;1.73;;
13720;SDS011;6932;51.438;5.470;2023-12-29T04:37:51;7.93;;;1.93;;
13720;SDS011;6932;51.438;5.470;2023-12-29T04:40:17;6.47;;;2.00;;
13720;SDS011;6932;51.438;5.470;2023-12-29T04:42:43;9.97;;;1.90;;
13720;SDS011;6932;51.438;5.470;2023-12-29T04:45:09;7.27;;;1.80;;
13720;SDS011;6932;51.438;5.470;2023-12-29T04:47:36;5.47;;;1.60;;
13720;SDS011;6932;51.438;5.470;2023-12-29T04:50:03;6.43;;;1.80;;
13720;SDS011;6932;51.438;5.470;2023-12-29T04:52:30;6.50;;;1.97;;
13720;SDS011;6932;51.438;5.470;2023-12-29T04:54:57;5.90;;;1.60;;
13720;SDS011;6932;51.438;5.470;2023-12-29T04:57:22;5.47;;;1.67;;
13720;SDS011;6932;51.438;5.470;2023-12-29T04:59:48;4.87;;;1.73;;
13720;SDS011;6932;51.438;5.470;2023-12-29T05:02:14;7.20;;;1.73;;
13720;SDS011;6932;51.438;5.470;2023-12-29T05:04:40;4.90;;;1.50;;
13720;SDS011;6932;51.438;5.470;2023-12-29T05:07:08;6.80;;;1.90;;
13720;SDS011;6932;51.438;5.470;2023-12-29T05:09:34;5.07;;;1.83;;
13720;SDS011;6932;51.438;5.470;2023-12-29T05:12:00;5.40;;;1.70;;
13720;SDS011;6932;51.438;5.470;2023-12-29T05:14:26;8.83;;;2.03;;
13720;SDS011;6932;51.438;5.470;2023-12-29T05:16:52;6.50;;;1.80;;
13720;SDS011;6932;51.438;5.470;2023-12-29T05:19:18;6.97;;;1.73;;
13720;SDS011;6932;51.438;5.470;2023-12-29T05:21:44;7.53;;;1.83;;
13720;SDS011;6932;51.438;5.470;2023-12-29T05:24:10;4.37;;;1.60;;
13720;SDS011;6932;51.438;5.470;2023-12-29T05:26:36;7.27;;;1.67;;
13720;SDS011;6932;51.438;5.470;2023-12-29T05:29:02;7.47;;;1.90;;
13720;SDS011;6932;51.438;5.470;2023-12-29T05:31:28;5.10;;;1.40;;
13720;SDS011;6932;51.438;5.470;2023-12-29T05:33:53;7.60;;;2.00;;
13720;SDS011;6932;51.438;5.470;2023-12-29T05:36:21;6.87;;;1.63;;
13720;SDS011;6932;51.438;5.470;2023-12-29T05:38:47;6.73;;;1.73;;
13720;SDS011;6932;51.438;5.470;2023-12-29T05:41:13;8.30;;;2.13;;
13720;SDS011;6932;51.438;5.470;2023-12-29T05:43:39;6.87;;;1.90;;
13720;SDS011;6932;51.438;5.470;2023-12-29T05:46:11;5.77;;;1.53;;
13720;SDS011;6932;51.438;5.470;2023-12-29T05:48:37;6.23;;;1.53;;
13720;SDS011;6932;51.438;5.470;2023-12-29T05:51:10;5.73;;;1.50;;
13720;SDS011;6932;51.438;5.470;2023-12-29T05:53:41;7.33;;;1.70;;
13720;SDS011;6932;51.438;5.470;2023-12-29T05:56:10;5.47;;;1.60;;
13720;SDS011;6932;51.438;5.470;2023-12-29T05:58:38;5.57;;;1.80;;
13720;SDS011;6932;51.438;5.470;2023-12-29T06:01:08;10.00;;;1.90;;
13720;SDS011;6932;51.438;5.470;2023-12-29T06:03:34;9.03;;;1.77;;
13720;SDS011;6932;51.438;5.470;2023-12-29T06:06:00;8.70;;;1.60;;
13720;SDS011;6932;51.438;5.470;2023-12-29T06:08:27;5.00;;;1.40;;
13720;SDS011;6932;51.438;5.470;2023-12-29T06:10:53;4.67;;;1.40;;
13720;SDS011;6932;51.438;5.470;2023-12-29T06:13:18;6.23;;;1.70;;
13720;SDS011;6932;51.438;5.470;2023-12-29T06:15:44;6.47;;;1.90;;
13720;SDS011;6932;51.438;5.470;2023-12-29T06:18:10;7.17;;;2.23;;
13720;SDS011;6932;51.438;5.470;2023-12-29T06:20:36;5.03;;;1.83;;
13720;SDS011;6932;51.438;5.470;2023-12-29T06:23:02;4.77;;;1.30;;
13720;SDS011;6932;51.438;5.470;2023-12-29T06:25:28;6.03;;;1.67;;
13720;SDS011;6932;51.438;5.470;2023-12-29T06:27:53;5.50;;;1.57;;
13720;SDS011;6932;51.438;5.470;2023-12-29T06:30:20;7.10;;;1.97;;
13720;SDS011;6932;51.438;5.470;2023-12-29T06:32:46;5.83;;;1.40;;
13720;SDS011;6932;51.438;5.470;2023-12-29T06:35:11;5.70;;;1.30;;
13720;SDS011;6932;51.438;5.470;2023-12-29T06:37:38;5.07;;;1.67;;
13720;SDS011;6932;51.438;5.470;2023-12-29T06:40:06;6.03;;;1.73;;
13720;SDS011;6932;51.438;5.470;2023-12-29T06:42:32;7.17;;;1.70;;
13720;SDS011;6932;51.438;5.470;2023-12-29T06:44:58;5.97;;;1.70;;
13720;SDS011;6932;51.438;5.470;2023-12-29T06:47:24;5.43;;;1.50;;
13720;SDS011;6932;51.438;5.470;2023-12-29T06:49:50;5.93;;;1.53;;
13720;SDS011;6932;51.438;5.470;2023-12-29T06:52:16;6.13;;;1.80;;
13720;SDS011;6932;51.438;5.470;2023-12-29T06:54:42;4.63;;;1.40;;
13720;SDS011;6932;51.438;5.470;2023-12-29T06:57:08;5.93;;;1.43;;
13720;SDS011;6932;51.438;5.470;2023-12-29T06:59:34;8.07;;;1.63;;
13720;SDS011;6932;51.438;5.470;2023-12-29T07:01:59;5.23;;;1.80;;
13720;SDS011;6932;51.438;5.470;2023-12-29T07:04:25;7.00;;;1.70;;
13720;SDS011;6932;51.438;5.470;2023-12-29T07:06:51;6.33;;;1.77;;
13720;SDS011;6932;51.438;5.470;2023-12-29T07:09:18;4.53;;;1.47;;
13720;SDS011;6932;51.438;5.470;2023-12-29T07:11:47;4.77;;;1.60;;
13720;SDS011;6932;51.438;5.470;2023-12-29T07:14:14;5.40;;;1.50;;
13720;SDS011;6932;51.438;5.470;2023-12-29T07:16:40;4.83;;;1.80;;
13720;SDS011;6932;51.438;5.470;2023-12-29T07:19:06;4.60;;;1.47;;
13720;SDS011;6932;51.438;5.470;2023-12-29T07:21:32;3.47;;;1.53;;
13720;SDS011;6932;51.438;5.470;2023-12-29T07:23:58;6.63;;;1.63;;
13720;SDS011;6932;51.438;5.470;2023-12-29T07:26:23;4.57;;;1.60;;
13720;SDS011;6932;51.438;5.470;2023-12-29T07:28:49;4.23;;;1.50;;
13720;SDS011;6932;51.438;5.470;2023-12-29T07:31:19;6.30;;;1.77;;
13720;SDS011;6932;51.438;5.470;2023-12-29T07:33:48;5.63;;;1.67;;
13720;SDS011;6932;51.438;5.470;2023-12-29T07:36:14;7.97;;;2.33;;
13720;SDS011;6932;51.438;5.470;2023-12-29T07:38:40;6.30;;;1.47;;
13720;SDS011;6932;51.438;5.470;2023-12-29T07:41:07;5.80;;;1.67;;
13720;SDS011;6932;51.438;5.470;2023-12-29T07:43:34;3.33;;;1.50;;
13720;SDS011;6932;51.438;5.470;2023-12-29T07:46:01;5.07;;;1.23;;
13720;SDS011;6932;51.438;5.470;2023-12-29T07:48:27;5.60;;;1.40;;
13720;SDS011;6932;51.438;5.470;2023-12-29T07:50:53;3.63;;;1.40;;
13720;SDS011;6932;51.438;5.470;2023-12-29T07:53:19;4.47;;;1.33;;
13720;SDS011;6932;51.438;5.470;2023-12-29T07:55:45;4.50;;;1.70;;
13720;SDS011;6932;51.438;5.470;2023-12-29T07:58:13;3.83;;;1.50;;
13720;SDS011;6932;51.438;5.470;2023-12-29T08:00:39;4.20;;;1.43;;
13720;SDS011;6932;51.438;5.470;2023-12-29T08:03:04;4.67;;;1.40;;
13720;SDS011;6932;51.438;5.470;2023-12-29T08:05:30;4.47;;;1.40;;
13720;SDS011;6932;51.438;5.470;2023-12-29T08:07:56;4.27;;;1.40;;
13720;SDS011;6932;51.438;5.470;2023-12-29T08:10:22;6.07;;;1.60;;
13720;SDS011;6932;51.438;5.470;2023-12-29T08:12:47;2.60;;;1.17;;
13720;SDS011;6932;51.438;5.470;2023-12-29T08:15:13;3.43;;;1.33;;
13720;SDS011;6932;51.438;5.470;2023-12-29T08:17:39;3.93;;;1.10;;
13720;SDS011;6932;51.438;5.470;2023-12-29T08:20:05;2.37;;;1.13;;
13720;SDS011;6932;51.438;5.470;2023-12-29T08:22:31;3.33;;;1.00;;
13720;SDS011;6932;51.438;5.470;2023-12-29T08:24:57;2.73;;;1.00;;
13720;SDS011;6932;51.438;5.470;2023-12-29T08:27:24;2.67;;;1.00;;
13720;SDS011;6932;51.438;5.470;2023-12-29T08:29:53;2.50;;;1.00;;
13720;SDS011;6932;51.438;5.470;2023-12-29T08:32:19;3.00;;;1.10;;
13720;SDS011;6932;51.438;5.470;2023-12-29T08:34:45;2.07;;;0.90;;
13720;SDS011;6932;51.438;5.470;2023-12-29T08:37:11;2.87;;;1.10;;
13720;SDS011;6932;51.438;5.470;2023-12-29T08:39:37;2.80;;;1.10;;
13720;SDS011;6932;51.438;5.470;2023-12-29T08:42:03;2.17;;;1.20;;
13720;SDS011;6932;51.438;5.470;2023-12-29T08:44:29;3.67;;;1.20;;
13720;SDS011;6932;51.438;5.470;2023-12-29T08:46:54;2.73;;;1.00;;
13720;SDS011;6932;51.438;5.470;2023-12-29T08:49:20;3.10;;;1.10;;
13720;SDS011;6932;51.438;5.470;2023-12-29T08:51:46;2.37;;;1.00;;
13720;SDS011;6932;51.438;5.470;2023-12-29T08:54:12;2.93;;;1.00;;
13720;SDS011;6932;51.438;5.470;2023-12-29T08:56:38;3.23;;;1.40;;
13720;SDS011;6932;51.438;5.470;2023-12-29T08:59:03;2.20;;;0.90;;
13720;SDS011;6932;51.438;5.470;2023-12-29T09:01:29;4.10;;;1.03;;
13720;SDS011;6932;51.438;5.470;2023-12-29T09:03:55;3.27;;;1.00;;
13720;SDS011;6932;51.438;5.470;2023-12-29T09:06:20;0.93;;;0.77;;
13720;SDS011;6932;51.438;5.470;2023-12-29T09:08:46;3.33;;;1.27;;
13720;SDS011;6932;51.438;5.470;2023-12-29T09:11:12;2.47;;;0.80;;
13720;SDS011;6932;51.438;5.470;2023-12-29T09:13:38;1.50;;;0.70;;
13720;SDS011;6932;51.438;5.470;2023-12-29T09:16:03;2.50;;;0.80;;
13720;SDS011;6932;51.438;5.470;2023-12-29T09:18:29;2.37;;;0.90;;
13720;SDS011;6932;51.438;5.470;2023-12-29T09:20:55;2.47;;;0.80;;
13720;SDS011;6932;51.438;5.470;2023-12-29T09:23:21;2.27;;;0.90;;
13720;SDS011;6932;51.438;5.470;2023-12-29T09:25:47;1.43;;;0.60;;
13720;SDS011;6932;51.438;5.470;2023-12-29T09:28:12;1.50;;;0.80;;
13720;SDS011;6932;51.438;5.470;2023-12-29T09:30:38;0.83;;;0.67;;
13720;SDS011;6932;51.438;5.470;2023-12-29T09:33:04;2.77;;;0.77;;
13720;SDS011;6932;51.438;5.470;2023-12-29T09:35:30;3.30;;;1.00;;
13720;SDS011;6932;51.438;5.470;2023-12-29T09:37:57;2.50;;;0.93;;
13720;SDS011;6932;51.438;5.470;2023-12-29T09:40:24;1.47;;;0.77;;
13720;SDS011;6932;51.438;5.470;2023-12-29T09:42:51;1.60;;;0.80;;
13720;SDS011;6932;51.438;5.470;2023-12-29T09:45:19;0.97;;;0.70;;
13720;SDS011;6932;51.438;5.470;2023-12-29T09:47:51;2.50;;;1.00;;
13720;SDS011;6932;51.438;5.470;2023-12-29T09:50:19;1.67;;;0.70;;
13720;SDS011;6932;51.438;5.470;2023-12-29T09:52:48;1.33;;;0.63;;
13720;SDS011;6932;51.438;5.470;2023-12-29T09:55:17;1.53;;;0.70;;
13720;SDS011;6932;51.438;5.470;2023-12-29T09:57:44;2.93;;;0.60;;
13720;SDS011;6932;51.438;5.470;2023-12-29T10:00:15;1.83;;;0.70;;
13720;SDS011;6932;51.438;5.470;2023-12-29T10:02:43;2.17;;;0.70;;
13720;SDS011;6932;51.438;5.470;2023-12-29T10:05:10;1.07;;;0.50;;
13720;SDS011;6932;51.438;5.470;2023-12-29T10:07:36;0.83;;;0.60;;
13720;SDS011;6932;51.438;5.470;2023-12-29T10:10:04;0.60;;;0.60;;
13720;SDS011;6932;51.438;5.470;2023-12-29T10:12:31;1.40;;;0.60;;
13720;SDS011;6932;51.438;5.470;2023-12-29T10:17:52;1.80;;;0.90;;
13720;SDS011;6932;51.438;5.470;2023-12-29T10:20:58;0.83;;;0.53;;
13720;SDS011;6932;51.438;5.470;2023-12-29T10:23:40;0.73;;;0.50;;
13720;SDS011;6932;51.438;5.470;2023-12-29T10:26:12;1.30;;;0.60;;
13720;SDS011;6932;51.438;5.470;2023-12-29T10:28:39;2.80;;;0.97;;
13720;SDS011;6932;51.438;5.470;2023-12-29T10:31:04;1.97;;;0.73;;
13720;SDS011;6932;51.438;5.470;2023-12-29T10:33:30;2.17;;;0.70;;
13720;SDS011;6932;51.438;5.470;2023-12-29T10:36:01;2.17;;;0.80;;
13720;SDS011;6932;51.438;5.470;2023-12-29T10:38:30;1.23;;;0.70;;
13720;SDS011;6932;51.438;5.470;2023-12-29T10:43:44;3.50;;;0.80;;
13720;SDS011;6932;51.438;5.470;2023-12-29T10:46:17;2.70;;;0.90;;
13720;SDS011;6932;51.438;5.470;2023-12-29T10:48:43;3.13;;;0.90;;
13720;SDS011;6932;51.438;5.470;2023-12-29T10:51:09;4.67;;;1.17;;
13720;SDS011;6932;51.438;5.470;2023-12-29T10:53:35;4.43;;;1.20;;
13720;SDS011;6932;51.438;5.470;2023-12-29T10:56:02;5.43;;;1.30;;
13720;SDS011;6932;51.438;5.470;2023-12-29T10:58:28;3.33;;;1.20;;
13720;SDS011;6932;51.438;5.470;2023-12-29T11:00:56;2.80;;;1.40;;
13720;SDS011;6932;51.438;5.470;2023-12-29T11:03:23;4.27;;;1.30;;
13720;SDS011;6932;51.438;5.470;2023-12-29T11:05:49;3.27;;;1.30;;
13720;SDS011;6932;51.438;5.470;2023-12-29T11:08:25;2.77;;;1.60;;
13720;SDS011;6932;51.438;5.470;2023-12-29T11:10:51;4.23;;;1.47;;
13720;SDS011;6932;51.438;5.470;2023-12-29T11:13:18;3.17;;;1.20;;
13720;SDS011;6932;51.438;5.470;2023-12-29T11:15:45;3.63;;;1.20;;
13720;SDS011;6932;51.438;5.470;2023-12-29T11:18:15;2.97;;;1.20;;
13720;SDS011;6932;51.438;5.470;2023-12-29T11:20:42;3.03;;;1.07;;
13720;SDS011;6932;51.438;5.470;2023-12-29T11:23:10;4.17;;;1.20;;
13720;SDS011;6932;51.438;5.470;2023-12-29T11:25:38;2.93;;;1.03;;
13720;SDS011;6932;51.438;5.470;2023-12-29T11:28:08;1.73;;;0.90;;
13720;SDS011;6932;51.438;5.470;2023-12-29T11:30:39;3.23;;;1.10;;
13720;SDS011;6932;51.438;5.470;2023-12-29T11:33:07;3.00;;;1.20;;
13720;SDS011;6932;51.438;5.470;2023-12-29T11:35:44;3.97;;;1.17;;
13720;SDS011;6932;51.438;5.470;2023-12-29T11:41:20;2.80;;;1.07;;
13720;SDS011;6932;51.438;5.470;2023-12-29T11:44:07;3.50;;;1.20;;
13720;SDS011;6932;51.438;5.470;2023-12-29T11:46:37;2.37;;;1.00;;
13720;SDS011;6932;51.438;5.470;2023-12-29T11:49:03;6.87;;;1.50;;
13720;SDS011;6932;51.438;5.470;2023-12-29T11:51:31;2.40;;;1.03;;
13720;SDS011;6932;51.438;5.470;2023-12-29T11:53:58;3.13;;;1.20;;
13720;SDS011;6932;51.438;5.470;2023-12-29T11:56:34;3.17;;;1.30;;
13720;SDS011;6932;51.438;5.470;2023-12-29T11:59:16;2.63;;;1.20;;
13720;SDS011;6932;51.438;5.470;2023-12-29T12:09:47;3.23;;;1.13;;
13720;SDS011;6932;51.438;5.470;2023-12-29T12:18:04;5.33;;;1.60;;
13720;SDS011;6932;51.438;5.470;2023-12-29T12:20:34;4.57;;;1.67;;
13720;SDS011;6932;51.438;5.470;2023-12-29T12:23:01;2.30;;;1.10;;
13720;SDS011;6932;51.438;5.470;2023-12-29T12:25:35;3.57;;;1.60;;
13720;SDS011;6932;51.438;5.470;2023-12-29T12:28:07;3.23;;;1.60;;
13720;SDS011;6932;51.438;5.470;2023-12-29T12:30:35;4.20;;;1.50;;
13720;SDS011;6932;51.438;5.470;2023-12-29T12:33:01;2.70;;;1.47;;
13720;SDS011;6932;51.438;5.470;2023-12-29T12:35:29;4.47;;;1.50;;
13720;SDS011;6932;51.438;5.470;2023-12-29T12:40:39;6.10;;;1.93;;
13720;SDS011;6932;51.438;5.470;2023-12-29T12:43:05;4.77;;;2.17;;
13720;SDS011;6932;51.438;5.470;2023-12-29T12:45:40;3.83;;;1.57;;
13720;SDS011;6932;51.438;5.470;2023-12-29T12:48:13;3.87;;;1.63;;
13720;SDS011;6932;51.438;5.470;2023-12-29T12:50:48;5.83;;;1.63;;
13720;SDS011;6932;51.438;5.470;2023-12-29T12:53:14;4.93;;;1.70;;
13720;SDS011;6932;51.438;5.470;2023-12-29T12:55:47;4.37;;;1.73;;
13720;SDS011;6932;51.438;5.470;2023-12-29T12:58:20;5.53;;;1.67;;
13720;SDS011;6932;51.438;5.470;2023-12-29T13:00:46;2.30;;;1.40;;
13720;SDS011;6932;51.438;5.470;2023-12-29T13:03:13;5.60;;;1.80;;
13720;SDS011;6932;51.438;5.470;2023-12-29T13:05:40;3.73;;;1.30;;
13720;SDS011;6932;51.438;5.470;2023-12-29T13:08:07;6.43;;;1.87;;
13720;SDS011;6932;51.438;5.470;2023-12-29T13:10:33;3.93;;;1.50;;
13720;SDS011;6932;51.438;5.470;2023-12-29T13:13:05;4.10;;;1.50;;
13720;SDS011;6932;51.438;5.470;2023-12-29T13:15:31;5.43;;;1.30;;
13720;SDS011;6932;51.438;5.470;2023-12-29T13:17:57;4.70;;;1.30;;
13720;SDS011;6932;51.438;5.470;2023-12-29T13:20:23;3.07;;;1.10;;
13720;SDS011;6932;51.438;5.470;2023-12-29T13:22:50;5.70;;;1.40;;
13720;SDS011;6932;51.438;5.470;2023-12-29T13:25:25;4.33;;;1.30;;
13720;SDS011;6932;51.438;5.470;2023-12-29T13:27:53;3.30;;;1.10;;
13720;SDS011;6932;51.438;5.470;2023-12-29T13:30:20;2.37;;;1.30;;
13720;SDS011;6932;51.438;5.470;2023-12-29T13:32:47;2.57;;;1.57;;
13720;SDS011;6932;51.438;5.470;2023-12-29T13:35:31;1.80;;;1.20;;
13720;SDS011;6932;51.438;5.470;2023-12-29T13:40:46;1.97;;;1.00;;
13720;SDS011;6932;51.438;5.470;2023-12-29T13:43:23;2.07;;;0.90;;
13720;SDS011;6932;51.438;5.470;2023-12-29T13:45:49;2.43;;;1.10;;
13720;SDS011;6932;51.438;5.470;2023-12-29T13:48:16;1.93;;;1.20;;
13720;SDS011;6932;51.438;5.470;2023-12-29T13:50:45;1.93;;;1.00;;
13720;SDS011;6932;51.438;5.470;2023-12-29T13:53:19;1.73;;;1.10;;
13720;SDS011;6932;51.438;5.470;2023-12-29T13:55:46;1.47;;;1.00;;
13720;SDS011;6932;51.438;5.470;2023-12-29T13:58:12;2.13;;;0.90;;
13720;SDS011;6932;51.438;5.470;2023-12-29T14:00:41;2.37;;;1.07;;
13720;SDS011;6932;51.438;5.470;2023-12-29T14:03:14;1.60;;;0.90;;
13720;SDS011;6932;51.438;5.470;2023-12-29T14:05:51;2.27;;;0.93;;
13720;SDS011;6932;51.438;5.470;2023-12-29T14:08:25;0.90;;;0.80;;
13720;SDS011;6932;51.438;5.470;2023-12-29T14:11:08;3.33;;;1.10;;
13720;SDS011;6932;51.438;5.470;2023-12-29T14:13:34;2.10;;;0.80;;
13720;SDS011;6932;51.438;5.470;2023-12-29T14:16:05;3.17;;;0.90;;
13720;SDS011;6932;51.438;5.470;2023-12-29T14:21:21;1.30;;;0.70;;
13720;SDS011;6932;51.438;5.470;2023-12-29T14:26:30;1.77;;;0.90;;
13720;SDS011;6932;51.438;5.470;2023-12-29T14:29:00;2.23;;;1.10;;
13720;SDS011;6932;51.438;5.470;2023-12-29T14:31:41;1.93;;;1.00;;
13720;SDS011;6932;51.438;5.470;2023-12-29T14:34:08;2.53;;;0.93;;
13720;SDS011;6932;51.438;5.470;2023-12-29T14:36:36;2.60;;;0.80;;
13720;SDS011;6932;51.438;5.470;2023-12-29T14:39:03;2.03;;;0.90;;
13720;SDS011;6932;51.438;5.470;2023-12-29T14:41:30;2.00;;;0.93;;
13720;SDS011;6932;51.438;5.470;2023-12-29T14:43:56;0.93;;;0.70;;
13720;SDS011;6932;51.438;5.470;2023-12-29T14:46:22;1.13;;;0.73;;
13720;SDS011;6932;51.438;5.470;2023-12-29T14:48:48;1.17;;;0.77;;
13720;SDS011;6932;51.438;5.470;2023-12-29T14:51:14;1.53;;;0.93;;
13720;SDS011;6932;51.438;5.470;2023-12-29T14:53:42;1.40;;;1.00;;
13720;SDS011;6932;51.438;5.470;2023-12-29T14:56:10;1.73;;;1.00;;
13720;SDS011;6932;51.438;5.470;2023-12-29T14:58:36;1.27;;;0.90;;
13720;SDS011;6932;51.438;5.470;2023-12-29T15:01:02;1.90;;;1.23;;
13720;SDS011;6932;51.438;5.470;2023-12-29T15:03:28;1.83;;;1.17;;
13720;SDS011;6932;51.438;5.470;2023-12-29T15:05:54;1.80;;;0.90;;
13720;SDS011;6932;51.438;5.470;2023-12-29T15:08:20;2.90;;;1.30;;
13720;SDS011;6932;51.438;5.470;2023-12-29T15:10:46;1.60;;;1.10;;
13720;SDS011;6932;51.438;5.470;2023-12-29T15:13:12;2.70;;;1.10;;
13720;SDS011;6932;51.438;5.470;2023-12-29T15:15:37;1.47;;;0.90;;
13720;SDS011;6932;51.438;5.470;2023-12-29T15:18:04;2.73;;;1.30;;
13720;SDS011;6932;51.438;5.470;2023-12-29T15:20:30;1.50;;;1.10;;
13720;SDS011;6932;51.438;5.470;2023-12-29T15:22:56;2.03;;;0.90;;
13720;SDS011;6932;51.438;5.470;2023-12-29T15:25:24;1.50;;;1.10;;
13720;SDS011;6932;51.438;5.470;2023-12-29T15:27:51;1.80;;;1.20;;
13720;SDS011;6932;51.438;5.470;2023-12-29T15:30:17;1.43;;;0.90;;
13720;SDS011;6932;51.438;5.470;2023-12-29T15:32:43;1.47;;;1.00;;
13720;SDS011;6932;51.438;5.470;2023-12-29T15:35:09;2.60;;;1.20;;